createdAt,value
2018-07-17T00:00:59.251Z,22.90
2018-07-17T00:03:27.446Z,22.90
2018-07-17T00:05:55.729Z,22.80
2018-07-17T00:08:23.894Z,22.80
2018-07-17T00:10:52.057Z,22.80
2018-07-17T00:13:20.271Z,22.70
2018-07-17T00:15:48.456Z,22.70
2018-07-17T00:18:16.610Z,22.70
2018-07-17T00:20:45.044Z,22.60
2018-07-17T00:23:13.219Z,22.60
2018-07-17T00:25:41.405Z,22.50
2018-07-17T00:28:09.568Z,22.50
2018-07-17T00:30:37.755Z,22.40
2018-07-17T00:33:05.945Z,22.40
2018-07-17T00:35:34.112Z,22.40
2018-07-17T00:38:02.300Z,22.30
2018-07-17T00:40:30.473Z,22.30
2018-07-17T00:42:58.663Z,22.30
2018-07-17T00:45:26.934Z,22.20
2018-07-17T00:47:55.108Z,22.10
2018-07-17T00:50:23.295Z,22.10
2018-07-17T00:52:51.639Z,22.00
2018-07-17T00:55:20.012Z,21.90
2018-07-17T00:57:48.194Z,21.80
2018-07-17T01:00:16.415Z,21.90
2018-07-17T01:05:23.536Z,21.90
2018-07-17T01:07:57.277Z,21.90
2018-07-17T01:10:30.800Z,21.80
2018-07-17T01:12:58.259Z,21.80
2018-07-17T01:15:36.596Z,21.80
2018-07-17T01:18:04.823Z,21.80
2018-07-17T01:20:33.114Z,21.80
2018-07-17T01:23:01.284Z,21.70
2018-07-17T01:25:29.459Z,21.70
2018-07-17T01:27:57.643Z,21.70
2018-07-17T01:30:25.844Z,21.70
2018-07-17T01:32:54.071Z,21.70
2018-07-17T01:35:22.255Z,21.70
2018-07-17T01:37:50.576Z,21.60
2018-07-17T01:40:18.760Z,21.60
2018-07-17T01:42:46.919Z,21.60
2018-07-17T01:45:15.110Z,21.60
2018-07-17T01:47:43.267Z,21.50
2018-07-17T01:50:11.439Z,21.50
2018-07-17T01:52:39.616Z,21.50
2018-07-17T01:55:07.795Z,21.50
2018-07-17T01:57:35.961Z,21.40
2018-07-17T02:00:04.540Z,21.40
2018-07-17T02:05:00.742Z,21.40
2018-07-17T02:07:28.881Z,21.30
2018-07-17T02:09:57.055Z,21.30
2018-07-17T02:12:25.248Z,21.20
2018-07-17T02:14:53.492Z,21.20
2018-07-17T02:17:21.684Z,21.20
2018-07-17T02:19:49.856Z,21.10
2018-07-17T02:22:18.044Z,21.10
2018-07-17T02:24:46.224Z,21.10
2018-07-17T02:27:14.411Z,21.10
2018-07-17T02:29:42.583Z,21.00
2018-07-17T02:32:10.761Z,21.00
2018-07-17T02:34:38.943Z,21.00
2018-07-17T02:37:07.137Z,21.00
2018-07-17T02:42:03.310Z,20.90
2018-07-17T02:44:31.495Z,20.90
2018-07-17T02:46:59.655Z,20.90
2018-07-17T02:49:27.812Z,20.90
2018-07-17T02:51:56.000Z,20.80
2018-07-17T02:54:24.200Z,20.80
2018-07-17T02:56:52.356Z,20.80
2018-07-17T02:59:20.715Z,20.80
2018-07-17T03:01:48.898Z,20.80
2018-07-17T03:04:17.063Z,20.80
2018-07-17T03:06:45.230Z,20.80
2018-07-17T03:09:13.404Z,20.80
2018-07-17T03:11:41.566Z,20.80
2018-07-17T03:16:37.862Z,20.70
2018-07-17T03:19:06.032Z,20.70
2018-07-17T03:21:34.216Z,20.70
2018-07-17T03:24:02.377Z,20.70
2018-07-17T03:26:30.543Z,20.70
2018-07-17T03:28:58.732Z,20.60
2018-07-17T03:31:26.904Z,20.60
2018-07-17T03:33:55.110Z,20.60
2018-07-17T03:36:23.313Z,20.60
2018-07-17T03:41:19.564Z,20.50
2018-07-17T03:43:47.746Z,20.50
2018-07-17T03:46:15.928Z,20.50
2018-07-17T03:48:44.111Z,20.50
2018-07-17T03:51:12.287Z,20.40
2018-07-17T03:53:40.620Z,20.40
2018-07-17T03:56:08.787Z,20.40
2018-07-17T03:58:36.959Z,20.30
2018-07-17T04:03:33.120Z,20.30
2018-07-17T04:06:01.304Z,20.20
2018-07-17T04:08:29.483Z,20.20
2018-07-17T04:10:57.676Z,20.20
2018-07-17T04:13:25.935Z,20.20
2018-07-17T04:15:54.029Z,20.10
2018-07-17T04:18:22.422Z,20.10
2018-07-17T04:20:50.630Z,20.00
2018-07-17T04:23:19.030Z,20.00
2018-07-17T04:25:47.212Z,20.00
2018-07-17T04:28:15.433Z,20.00
2018-07-17T04:30:43.625Z,20.00
2018-07-17T04:35:39.776Z,20.00
2018-07-17T04:38:07.956Z,19.90
2018-07-17T04:40:36.125Z,19.90
2018-07-17T04:43:04.315Z,19.90
2018-07-17T04:45:32.475Z,19.90
2018-07-17T04:48:00.631Z,19.90
2018-07-17T04:52:57.111Z,19.90
2018-07-17T04:55:25.299Z,19.90
2018-07-17T04:57:53.486Z,19.80
2018-07-17T05:00:21.695Z,19.80
2018-07-17T05:05:17.854Z,19.80
2018-07-17T05:07:46.011Z,19.80
2018-07-17T05:12:42.168Z,19.80
2018-07-17T05:15:10.343Z,19.80
2018-07-17T05:17:38.748Z,19.80
2018-07-17T05:20:06.978Z,19.80
2018-07-17T05:22:35.123Z,19.80
2018-07-17T05:25:03.298Z,19.80
2018-07-17T05:29:59.440Z,19.80
2018-07-17T05:32:27.603Z,19.80
2018-07-17T05:34:55.805Z,19.80
2018-07-17T05:37:24.131Z,19.80
2018-07-17T05:39:52.299Z,19.80
2018-07-17T05:42:21.277Z,19.80
2018-07-17T05:44:49.444Z,19.80
2018-07-17T05:47:17.644Z,19.80
2018-07-17T05:49:45.813Z,19.80
2018-07-17T05:52:13.994Z,19.90
2018-07-17T05:54:42.173Z,19.90
2018-07-17T05:57:10.333Z,19.90
2018-07-17T05:59:38.583Z,19.90
2018-07-17T06:02:08.270Z,20.00
2018-07-17T06:04:36.462Z,20.00
2018-07-17T06:09:32.600Z,20.20
2018-07-17T06:14:28.760Z,20.50
2018-07-17T06:16:56.959Z,20.70
2018-07-17T06:19:25.147Z,20.90
2018-07-17T06:21:53.347Z,21.10
2018-07-17T06:24:21.523Z,21.30
2018-07-17T06:29:17.702Z,21.60
2018-07-17T06:31:45.872Z,21.70
2018-07-17T06:34:14.225Z,21.90
2018-07-17T06:39:10.495Z,22.20
2018-07-17T06:41:38.684Z,22.30
2018-07-17T06:44:06.860Z,22.40
2018-07-17T06:46:35.024Z,22.60
2018-07-17T06:49:03.191Z,22.70
2018-07-17T06:51:31.366Z,22.80
2018-07-17T06:53:59.555Z,23.00
2018-07-17T06:56:27.727Z,23.10
2018-07-17T06:58:55.904Z,23.30
2018-07-17T07:01:24.077Z,23.40
2018-07-17T07:03:52.255Z,23.60
2018-07-17T07:06:20.469Z,23.70
2018-07-17T07:08:48.649Z,23.70
2018-07-17T07:11:16.880Z,23.80
2018-07-17T07:13:44.983Z,24.00
2018-07-17T07:16:13.148Z,24.10
2018-07-17T07:18:41.313Z,24.20
2018-07-17T07:21:09.497Z,24.30
2018-07-17T07:23:37.673Z,24.40
2018-07-17T07:26:06.147Z,24.30
2018-07-17T07:28:34.314Z,24.50
2018-07-17T07:31:02.566Z,24.60
2018-07-17T07:33:30.660Z,24.50
2018-07-17T07:35:58.847Z,24.40
2018-07-17T07:38:27.004Z,24.40
2018-07-17T07:40:55.184Z,24.30
2018-07-17T07:43:23.373Z,24.40
2018-07-17T07:45:51.560Z,24.40
2018-07-17T07:48:19.723Z,24.40
2018-07-17T07:50:47.945Z,24.40
2018-07-17T07:53:16.127Z,24.40
2018-07-17T07:55:44.322Z,24.40
2018-07-17T07:58:12.498Z,24.40
2018-07-17T08:00:40.663Z,24.40
2018-07-17T08:03:08.864Z,24.30
2018-07-17T08:05:37.093Z,24.30
2018-07-17T08:08:05.303Z,24.30
2018-07-17T08:10:33.464Z,24.20
2018-07-17T08:13:01.684Z,24.20
2018-07-17T08:20:25.824Z,24.40
2018-07-17T08:22:54.016Z,24.40
2018-07-17T08:25:22.339Z,24.40
2018-07-17T08:30:18.492Z,24.50
2018-07-17T08:32:46.647Z,24.50
2018-07-17T08:35:14.807Z,24.50
2018-07-17T08:37:42.988Z,24.60
2018-07-17T08:40:11.169Z,24.60
2018-07-17T08:42:39.464Z,24.60
2018-07-17T08:50:03.602Z,24.80
2018-07-17T08:52:31.772Z,24.80
2018-07-17T08:54:59.946Z,24.80
2018-07-17T08:57:28.133Z,24.90
2018-07-17T08:59:56.322Z,25.00
2018-07-17T09:02:24.483Z,25.00
2018-07-17T09:04:52.665Z,25.00
2018-07-17T09:07:21.044Z,25.10
2018-07-17T09:09:49.211Z,25.10
2018-07-17T09:12:17.392Z,25.10
2018-07-17T09:14:45.588Z,25.10
2018-07-17T09:17:13.764Z,25.20
2018-07-17T09:19:41.927Z,25.20
2018-07-17T09:22:10.107Z,25.30
2018-07-17T09:24:38.294Z,25.30
2018-07-17T09:27:06.512Z,25.40
2018-07-17T09:29:34.696Z,25.50
2018-07-17T09:32:02.888Z,25.50
2018-07-17T09:34:31.053Z,25.50
2018-07-17T09:36:59.259Z,25.60
2018-07-17T09:39:27.431Z,25.60
2018-07-17T09:41:55.600Z,25.70
2018-07-17T09:44:23.834Z,25.80
2018-07-17T09:46:52.000Z,25.80
2018-07-17T09:49:20.177Z,25.80
2018-07-17T09:51:48.360Z,25.90
2018-07-17T09:54:16.563Z,26.00
2018-07-17T09:56:44.719Z,26.10
2018-07-17T09:59:12.992Z,26.10
2018-07-17T10:01:46.371Z,26.10
2018-07-17T10:04:14.547Z,26.10
2018-07-17T10:06:42.718Z,26.20
2018-07-17T10:09:10.892Z,26.20
2018-07-17T10:11:39.059Z,26.20
2018-07-17T10:14:07.248Z,26.30
2018-07-17T10:16:35.584Z,26.40
2018-07-17T10:19:03.764Z,26.30
2018-07-17T10:21:31.960Z,26.40
2018-07-17T10:24:00.138Z,26.40
2018-07-17T10:26:28.408Z,26.40
2018-07-17T10:28:56.508Z,26.40
2018-07-17T10:31:24.702Z,26.40
2018-07-17T10:33:53.288Z,26.50
2018-07-17T10:36:21.491Z,26.50
2018-07-17T10:38:49.679Z,26.50
2018-07-17T10:41:17.849Z,26.50
2018-07-17T10:43:46.047Z,26.60
2018-07-17T10:46:14.242Z,26.60
2018-07-17T10:48:42.433Z,26.70
2018-07-17T10:53:38.552Z,26.90
2018-07-17T10:56:06.734Z,27.00
2018-07-17T10:58:34.913Z,27.00
2018-07-17T11:01:03.168Z,27.20
2018-07-17T11:03:31.286Z,27.20
2018-07-17T11:08:27.444Z,27.20
2018-07-17T11:10:55.565Z,27.20
2018-07-17T11:13:23.816Z,27.30
2018-07-17T11:15:51.972Z,27.40
2018-07-17T11:18:20.148Z,27.40
2018-07-17T11:20:48.340Z,27.50
2018-07-17T11:23:16.615Z,27.50
2018-07-17T11:25:44.780Z,27.60
2018-07-17T11:28:12.976Z,27.50
2018-07-17T11:30:41.152Z,27.60
2018-07-17T11:33:09.343Z,27.70
2018-07-17T11:35:37.507Z,27.70
2018-07-17T11:38:05.732Z,27.60
2018-07-17T11:40:33.911Z,27.70
2018-07-17T11:43:02.485Z,27.70
2018-07-17T11:45:30.644Z,27.90
2018-07-17T11:47:59.701Z,27.90
2018-07-17T11:50:27.937Z,27.80
2018-07-17T11:52:56.106Z,27.90
2018-07-17T11:55:24.339Z,27.90
2018-07-17T11:57:52.495Z,27.80
2018-07-17T12:00:21.180Z,28.00
2018-07-17T12:02:49.364Z,28.00
2018-07-17T12:05:17.535Z,28.10
2018-07-17T12:07:45.720Z,28.20
2018-07-17T12:12:41.887Z,28.20
2018-07-17T12:15:10.045Z,28.30
2018-07-17T12:20:06.478Z,28.30
2018-07-17T12:25:02.472Z,28.40
2018-07-17T12:27:30.688Z,28.40
2018-07-17T12:29:58.858Z,28.40
2018-07-17T12:32:27.027Z,28.40
2018-07-17T12:34:55.291Z,28.40
2018-07-17T12:37:23.535Z,28.40
2018-07-17T12:39:51.758Z,28.40
2018-07-17T12:42:19.880Z,28.50
2018-07-17T12:44:48.063Z,28.50
2018-07-17T12:47:16.312Z,28.40
2018-07-17T12:49:44.536Z,28.40
2018-07-17T12:52:12.693Z,28.50
2018-07-17T12:54:40.872Z,28.60
2018-07-17T12:57:09.043Z,28.50
2018-07-17T12:59:37.247Z,28.60
2018-07-17T13:02:05.730Z,28.50
2018-07-17T13:04:33.899Z,28.50
2018-07-17T13:07:02.086Z,28.50
2018-07-17T13:11:58.441Z,28.50
2018-07-17T13:16:54.583Z,28.20
2018-07-17T13:19:22.853Z,28.20
2018-07-17T13:24:18.984Z,28.30
2018-07-17T13:26:47.162Z,28.30
2018-07-17T13:31:43.323Z,28.30
2018-07-17T13:34:11.505Z,28.40
2018-07-17T13:36:39.693Z,28.30
2018-07-17T13:39:10.244Z,28.30
2018-07-17T13:41:38.398Z,28.20
2018-07-17T13:44:06.768Z,28.20
2018-07-17T13:46:34.958Z,28.10
2018-07-17T13:49:03.224Z,28.20
2018-07-17T13:51:31.418Z,28.20
2018-07-17T13:53:59.591Z,28.20
2018-07-17T13:56:27.789Z,28.30
2018-07-17T13:58:55.988Z,28.30
2018-07-17T14:03:52.192Z,28.30
2018-07-17T14:06:20.389Z,28.40
2018-07-17T14:08:48.559Z,28.50
2018-07-17T14:11:16.777Z,28.50
2018-07-17T14:13:44.948Z,28.60
2018-07-17T14:16:13.120Z,28.40
2018-07-17T14:18:41.322Z,28.40
2018-07-17T14:21:09.519Z,28.30
2018-07-17T14:23:37.755Z,28.40
2018-07-17T14:28:33.873Z,28.40
2018-07-17T14:31:02.049Z,28.50
2018-07-17T14:33:30.220Z,28.50
2018-07-17T14:35:58.452Z,28.70
2018-07-17T14:38:26.611Z,28.60
2018-07-17T14:40:54.804Z,28.60
2018-07-17T14:43:24.162Z,28.80
2018-07-17T14:45:52.334Z,28.80
2018-07-17T14:48:20.598Z,28.90
2018-07-17T14:50:48.681Z,29.00
2018-07-17T14:53:16.885Z,28.90
2018-07-17T14:55:45.049Z,29.00
2018-07-17T14:58:13.212Z,29.00
2018-07-17T15:00:41.440Z,29.10
2018-07-17T15:05:37.629Z,29.10
2018-07-17T15:08:05.812Z,29.30
2018-07-17T15:10:33.972Z,29.10
2018-07-17T15:13:02.164Z,29.10
2018-07-17T15:15:30.501Z,29.10
2018-07-17T15:17:58.644Z,29.20
2018-07-17T15:20:27.664Z,29.30
2018-07-17T15:22:55.859Z,29.30
2018-07-17T15:25:24.053Z,29.40
2018-07-17T15:27:52.565Z,29.30
2018-07-17T15:30:21.188Z,29.30
2018-07-17T15:32:49.388Z,29.30
2018-07-17T15:35:17.675Z,29.40
2018-07-17T15:37:45.726Z,29.30
2018-07-17T15:40:13.907Z,29.20
2018-07-17T15:42:42.063Z,29.20
2018-07-17T15:45:10.283Z,29.30
2018-07-17T15:47:38.480Z,29.30
2018-07-17T15:52:34.608Z,29.40
2018-07-17T15:57:30.731Z,29.40
2018-07-17T15:59:59.550Z,29.40
2018-07-17T16:02:27.662Z,29.50
2018-07-17T16:04:56.101Z,29.40
2018-07-17T16:09:52.419Z,29.50
2018-07-17T16:12:20.587Z,29.30
2018-07-17T16:14:48.784Z,29.20
2018-07-17T16:19:45.979Z,29.40
2018-07-17T16:22:14.181Z,29.40
2018-07-17T16:24:42.376Z,29.30
2018-07-17T16:27:10.562Z,29.30
2018-07-17T16:29:38.732Z,29.20
2018-07-17T16:32:07.119Z,29.20
2018-07-17T16:34:35.292Z,29.10
2018-07-17T16:37:03.455Z,29.20
2018-07-17T16:39:31.686Z,29.00
2018-07-17T16:41:59.873Z,28.90
2018-07-17T16:44:28.107Z,29.00
2018-07-17T16:46:56.419Z,29.00
2018-07-17T16:49:24.697Z,29.10
2018-07-17T16:51:52.863Z,29.00
2018-07-17T16:54:21.060Z,29.00
2018-07-17T16:56:49.216Z,28.90
2018-07-17T16:59:17.413Z,28.80
2018-07-17T17:01:45.583Z,28.80
2018-07-17T17:04:13.760Z,28.50
2018-07-17T17:06:41.948Z,28.50
2018-07-17T17:09:11.491Z,28.30
2018-07-17T17:11:39.707Z,28.20
2018-07-17T17:14:07.979Z,28.40
2018-07-17T17:16:36.140Z,28.30
2018-07-17T17:19:04.320Z,28.20
2018-07-17T17:21:32.507Z,27.90
2018-07-17T17:24:00.776Z,28.00
2018-07-17T17:26:28.900Z,27.90
2018-07-17T17:33:53.099Z,27.90
2018-07-17T17:36:21.369Z,27.60
2018-07-17T17:38:49.528Z,27.70
2018-07-17T17:41:17.695Z,27.50
2018-07-17T17:43:45.875Z,27.50
2018-07-17T17:46:14.044Z,27.40
2018-07-17T17:48:42.289Z,27.30
2018-07-17T17:51:11.711Z,27.20
2018-07-17T17:53:40.116Z,27.20
2018-07-17T17:56:08.348Z,27.10
2018-07-17T17:58:36.604Z,27.00
2018-07-17T18:01:04.868Z,27.00
2018-07-17T18:03:33.171Z,26.80
2018-07-17T18:06:01.459Z,26.70
2018-07-17T18:08:29.668Z,26.60
2018-07-17T18:10:58.556Z,26.40
2018-07-17T18:13:26.843Z,26.30
2018-07-17T18:15:55.115Z,26.10
2018-07-17T18:18:23.369Z,26.10
2018-07-17T18:20:51.571Z,26.00
2018-07-17T18:25:48.128Z,25.90
2018-07-17T18:30:44.340Z,25.70
2018-07-17T18:33:12.796Z,25.70
2018-07-17T18:35:41.071Z,25.60
2018-07-17T18:38:09.256Z,25.60
2018-07-17T18:40:37.429Z,25.50
2018-07-17T18:43:05.928Z,25.50
2018-07-17T18:45:34.147Z,25.40
2018-07-17T18:48:02.485Z,25.30
2018-07-17T18:50:30.671Z,25.10
2018-07-17T18:55:27.187Z,25.00
2018-07-17T18:57:55.435Z,24.90
2018-07-17T19:00:23.748Z,24.90
2018-07-17T19:02:51.907Z,24.80
2018-07-17T19:05:20.131Z,24.70
2018-07-17T19:10:16.663Z,24.50
2018-07-17T19:12:44.939Z,24.40
2018-07-17T19:15:13.165Z,24.30
2018-07-17T19:17:42.023Z,24.20
2018-07-17T19:22:38.362Z,24.10
2018-07-17T19:27:34.745Z,23.90
2018-07-17T19:30:03.324Z,23.90
2018-07-17T19:32:32.789Z,23.90
2018-07-17T19:35:01.116Z,23.90
2018-07-17T19:37:29.285Z,23.80
2018-07-17T19:39:57.520Z,23.70
2018-07-17T19:44:53.803Z,23.60
2018-07-17T19:47:22.066Z,23.50
2018-07-17T19:49:50.354Z,23.40
2018-07-17T19:52:18.799Z,23.40
2018-07-17T19:57:15.155Z,23.30
2018-07-17T19:59:43.824Z,23.20
2018-07-17T20:04:40.251Z,23.10
2018-07-17T20:07:08.487Z,23.00
2018-07-17T20:09:36.912Z,23.00
2018-07-17T20:12:05.499Z,22.90
2018-07-17T20:14:33.879Z,22.80
2018-07-17T20:17:02.239Z,22.80
2018-07-17T20:19:30.515Z,22.70
2018-07-17T20:21:59.595Z,22.70
2018-07-17T20:24:28.911Z,22.60
2018-07-17T20:26:57.135Z,22.60
2018-07-17T20:29:25.354Z,22.50
2018-07-17T20:31:54.151Z,22.50
2018-07-17T20:34:22.371Z,22.40
2018-07-17T20:36:50.573Z,22.30
2018-07-17T20:39:19.678Z,22.30
2018-07-17T20:41:47.929Z,22.20
2018-07-17T20:44:16.168Z,22.10
2018-07-17T20:49:12.355Z,22.00
2018-07-17T20:51:40.592Z,21.90
2018-07-17T20:56:36.756Z,21.80
2018-07-17T20:59:04.953Z,21.80
2018-07-17T21:01:33.141Z,21.70
2018-07-17T21:04:01.347Z,21.70
2018-07-17T21:06:29.536Z,21.70
2018-07-17T21:11:25.727Z,21.60
2018-07-17T21:13:54.041Z,21.60
2018-07-17T21:18:50.256Z,21.50
2018-07-17T21:21:18.556Z,21.40
2018-07-17T21:23:46.818Z,21.40
2018-07-17T21:26:15.049Z,21.30
2018-07-17T21:28:43.248Z,21.30
2018-07-17T21:31:11.503Z,21.20
2018-07-17T21:33:39.683Z,21.20
2018-07-17T21:36:07.927Z,21.20
2018-07-17T21:38:36.086Z,21.10
2018-07-17T21:43:32.272Z,21.00
2018-07-17T21:46:00.468Z,21.00
2018-07-17T21:48:28.655Z,20.90
2018-07-17T21:50:56.829Z,20.90
2018-07-17T21:53:25.019Z,20.80
2018-07-17T21:55:53.220Z,20.80
2018-07-17T21:58:21.383Z,20.80
2018-07-17T22:03:17.554Z,20.70
2018-07-17T22:05:45.723Z,20.60
2018-07-17T22:08:13.931Z,20.60
2018-07-17T22:10:42.141Z,20.50
2018-07-17T22:15:38.397Z,20.40
2018-07-17T22:18:06.604Z,20.40
2018-07-17T22:20:35.000Z,20.40
2018-07-17T22:23:03.188Z,20.30
2018-07-17T22:25:31.400Z,20.30
2018-07-17T22:27:59.601Z,20.20
2018-07-17T22:30:27.792Z,20.20
2018-07-17T22:32:56.019Z,20.10
2018-07-17T22:35:24.188Z,20.10
2018-07-17T22:37:52.371Z,20.10
2018-07-17T22:40:20.544Z,20.00
2018-07-17T22:42:48.781Z,20.00
2018-07-17T22:45:16.963Z,20.00
2018-07-17T22:47:45.192Z,19.90
2018-07-17T22:50:13.399Z,19.90
2018-07-17T22:52:41.595Z,19.80
2018-07-17T22:57:37.769Z,19.80
2018-07-17T23:00:06.824Z,19.80
2018-07-17T23:02:35.000Z,19.70
2018-07-17T23:07:31.123Z,19.70
2018-07-17T23:09:59.431Z,19.60
2018-07-17T23:14:55.591Z,19.50
2018-07-17T23:17:23.788Z,19.50
2018-07-17T23:19:51.976Z,19.50
2018-07-17T23:22:58.686Z,19.40
2018-07-17T23:27:56.883Z,19.40
2018-07-17T23:32:53.236Z,19.30
2018-07-17T23:35:22.344Z,19.30
2018-07-17T23:37:51.090Z,19.30
2018-07-17T23:40:19.731Z,19.20
2018-07-17T23:42:47.927Z,19.20
2018-07-17T23:45:16.658Z,19.10
2018-07-17T23:52:41.251Z,19.10
2018-07-17T23:55:09.443Z,19.00
2018-07-17T23:57:37.614Z,19.00
